sensor_id;sensor_type;location;lat;lon;timestamp;P1;durP1;ratioP1;P2;durP2;ratioP2
21831;SDS011;11078;49.872;6.188;2022-08-25T00:00:18;2.30;;;2.10;;
21831;SDS011;11078;49.872;6.188;2022-08-25T00:02:45;3.58;;;2.20;;
21831;SDS011;11078;49.872;6.188;2022-08-25T00:05:11;4.40;;;2.30;;
21831;SDS011;11078;49.872;6.188;2022-08-25T00:07:37;4.15;;;2.10;;
21831;SDS011;11078;49.872;6.188;2022-08-25T00:10:04;2.55;;;2.33;;
21831;SDS011;11078;49.872;6.188;2022-08-25T00:12:31;7.15;;;2.40;;
21831;SDS011;11078;49.872;6.188;2022-08-25T00:14:57;3.67;;;2.17;;
21831;SDS011;11078;49.872;6.188;2022-08-25T00:17:23;5.60;;;2.30;;
21831;SDS011;11078;49.872;6.188;2022-08-25T00:19:49;2.65;;;2.45;;
21831;SDS011;11078;49.872;6.188;2022-08-25T00:22:15;3.30;;;2.45;;
21831;SDS011;11078;49.872;6.188;2022-08-25T00:24:41;7.20;;;2.60;;
21831;SDS011;11078;49.872;6.188;2022-08-25T00:27:07;3.55;;;2.20;;
21831;SDS011;11078;49.872;6.188;2022-08-25T00:29:33;6.35;;;2.63;;
21831;SDS011;11078;49.872;6.188;2022-08-25T00:32:02;2.70;;;2.50;;
21831;SDS011;11078;49.872;6.188;2022-08-25T00:34:32;5.68;;;2.42;;
21831;SDS011;11078;49.872;6.188;2022-08-25T00:37:01;3.13;;;2.92;;
21831;SDS011;11078;49.872;6.188;2022-08-25T00:39:28;3.55;;;2.63;;
21831;SDS011;11078;49.872;6.188;2022-08-25T00:41:55;2.42;;;2.22;;
21831;SDS011;11078;49.872;6.188;2022-08-25T00:44:22;3.10;;;2.17;;
21831;SDS011;11078;49.872;6.188;2022-08-25T00:46:51;2.60;;;2.40;;
21831;SDS011;11078;49.872;6.188;2022-08-25T00:49:25;4.18;;;2.30;;
21831;SDS011;11078;49.872;6.188;2022-08-25T00:52:09;2.30;;;2.10;;
21831;SDS011;11078;49.872;6.188;2022-08-25T00:54:48;3.10;;;2.60;;
21831;SDS011;11078;49.872;6.188;2022-08-25T00:57:19;3.03;;;2.70;;
21831;SDS011;11078;49.872;6.188;2022-08-25T00:59:50;2.67;;;2.47;;
21831;SDS011;11078;49.872;6.188;2022-08-25T01:02:16;4.63;;;2.63;;
21831;SDS011;11078;49.872;6.188;2022-08-25T01:04:43;5.53;;;2.45;;
21831;SDS011;11078;49.872;6.188;2022-08-25T01:07:10;3.08;;;2.60;;
21831;SDS011;11078;49.872;6.188;2022-08-25T01:09:38;2.42;;;2.22;;
21831;SDS011;11078;49.872;6.188;2022-08-25T01:12:06;4.63;;;2.70;;
21831;SDS011;11078;49.872;6.188;2022-08-25T01:14:33;3.35;;;2.70;;
21831;SDS011;11078;49.872;6.188;2022-08-25T01:17:00;2.78;;;2.58;;
21831;SDS011;11078;49.872;6.188;2022-08-25T01:19:26;2.85;;;2.55;;
21831;SDS011;11078;49.872;6.188;2022-08-25T01:21:54;2.85;;;2.40;;
21831;SDS011;11078;49.872;6.188;2022-08-25T01:24:30;4.07;;;2.58;;
21831;SDS011;11078;49.872;6.188;2022-08-25T01:27:14;2.65;;;2.45;;
21831;SDS011;11078;49.872;6.188;2022-08-25T01:29:41;3.05;;;2.17;;
21831;SDS011;11078;49.872;6.188;2022-08-25T01:32:08;3.47;;;2.65;;
21831;SDS011;11078;49.872;6.188;2022-08-25T01:34:38;2.63;;;2.42;;
21831;SDS011;11078;49.872;6.188;2022-08-25T01:37:06;3.42;;;2.60;;
21831;SDS011;11078;49.872;6.188;2022-08-25T01:39:33;4.03;;;2.75;;
21831;SDS011;11078;49.872;6.188;2022-08-25T01:42:08;8.13;;;2.97;;
21831;SDS011;11078;49.872;6.188;2022-08-25T01:44:52;11.38;;;2.88;;
21831;SDS011;11078;49.872;6.188;2022-08-25T01:47:18;5.90;;;2.70;;
21831;SDS011;11078;49.872;6.188;2022-08-25T01:49:45;5.65;;;2.45;;
21831;SDS011;11078;49.872;6.188;2022-08-25T01:52:16;2.90;;;2.58;;
21831;SDS011;11078;49.872;6.188;2022-08-25T01:54:59;3.15;;;2.47;;
21831;SDS011;11078;49.872;6.188;2022-08-25T01:57:25;3.15;;;2.42;;
21831;SDS011;11078;49.872;6.188;2022-08-25T01:59:55;4.20;;;2.38;;
21831;SDS011;11078;49.872;6.188;2022-08-25T02:02:21;3.63;;;2.90;;
21831;SDS011;11078;49.872;6.188;2022-08-25T02:04:47;2.50;;;2.40;;
21831;SDS011;11078;49.872;6.188;2022-08-25T02:07:13;3.25;;;2.95;;
21831;SDS011;11078;49.872;6.188;2022-08-25T02:09:39;2.70;;;2.50;;
21831;SDS011;11078;49.872;6.188;2022-08-25T02:12:06;3.88;;;2.33;;
21831;SDS011;11078;49.872;6.188;2022-08-25T02:14:33;5.13;;;3.08;;
21831;SDS011;11078;49.872;6.188;2022-08-25T02:17:00;3.95;;;2.40;;
21831;SDS011;11078;49.872;6.188;2022-08-25T02:19:27;7.43;;;2.47;;
21831;SDS011;11078;49.872;6.188;2022-08-25T02:21:55;3.25;;;2.60;;
21831;SDS011;11078;49.872;6.188;2022-08-25T02:24:22;2.58;;;2.30;;
21831;SDS011;11078;49.872;6.188;2022-08-25T02:26:48;3.95;;;2.60;;
21831;SDS011;11078;49.872;6.188;2022-08-25T02:29:14;2.63;;;2.40;;
21831;SDS011;11078;49.872;6.188;2022-08-25T02:31:41;3.13;;;2.30;;
21831;SDS011;11078;49.872;6.188;2022-08-25T02:34:07;3.22;;;2.70;;
21831;SDS011;11078;49.872;6.188;2022-08-25T02:36:35;3.10;;;2.80;;
21831;SDS011;11078;49.872;6.188;2022-08-25T02:39:03;3.10;;;2.67;;
21831;SDS011;11078;49.872;6.188;2022-08-25T02:41:30;4.38;;;2.97;;
21831;SDS011;11078;49.872;6.188;2022-08-25T02:43:58;3.08;;;2.78;;
21831;SDS011;11078;49.872;6.188;2022-08-25T02:46:25;3.38;;;2.40;;
21831;SDS011;11078;49.872;6.188;2022-08-25T02:48:51;3.75;;;2.85;;
21831;SDS011;11078;49.872;6.188;2022-08-25T02:51:18;4.40;;;2.85;;
21831;SDS011;11078;49.872;6.188;2022-08-25T02:53:45;3.90;;;2.85;;
21831;SDS011;11078;49.872;6.188;2022-08-25T02:56:12;3.83;;;3.40;;
21831;SDS011;11078;49.872;6.188;2022-08-25T02:58:40;5.30;;;3.15;;
21831;SDS011;11078;49.872;6.188;2022-08-25T03:01:06;2.75;;;2.55;;
21831;SDS011;11078;49.872;6.188;2022-08-25T03:03:36;4.45;;;2.90;;
21831;SDS011;11078;49.872;6.188;2022-08-25T03:06:06;4.03;;;2.80;;
21831;SDS011;11078;49.872;6.188;2022-08-25T03:08:33;2.70;;;2.50;;
21831;SDS011;11078;49.872;6.188;2022-08-25T03:10:59;2.70;;;2.50;;
21831;SDS011;11078;49.872;6.188;2022-08-25T03:13:26;4.32;;;2.78;;
21831;SDS011;11078;49.872;6.188;2022-08-25T03:15:52;4.15;;;2.70;;
21831;SDS011;11078;49.872;6.188;2022-08-25T03:18:18;4.30;;;2.85;;
21831;SDS011;11078;49.872;6.188;2022-08-25T03:20:44;5.80;;;3.03;;
21831;SDS011;11078;49.872;6.188;2022-08-25T03:23:10;2.72;;;2.45;;
21831;SDS011;11078;49.872;6.188;2022-08-25T03:25:38;3.58;;;2.75;;
21831;SDS011;11078;49.872;6.188;2022-08-25T03:28:20;3.13;;;2.67;;
21831;SDS011;11078;49.872;6.188;2022-08-25T03:30:46;3.13;;;2.80;;
21831;SDS011;11078;49.872;6.188;2022-08-25T03:33:13;3.80;;;2.80;;
21831;SDS011;11078;49.872;6.188;2022-08-25T03:35:39;2.53;;;2.33;;
21831;SDS011;11078;49.872;6.188;2022-08-25T03:38:05;3.00;;;2.70;;
21831;SDS011;11078;49.872;6.188;2022-08-25T03:40:31;3.25;;;2.80;;
21831;SDS011;11078;49.872;6.188;2022-08-25T03:42:57;4.15;;;2.95;;
21831;SDS011;11078;49.872;6.188;2022-08-25T03:45:23;3.75;;;2.80;;
21831;SDS011;11078;49.872;6.188;2022-08-25T03:47:50;6.75;;;2.90;;
21831;SDS011;11078;49.872;6.188;2022-08-25T03:50:19;4.25;;;2.92;;
21831;SDS011;11078;49.872;6.188;2022-08-25T03:52:54;3.10;;;2.80;;
21831;SDS011;11078;49.872;6.188;2022-08-25T03:55:21;4.00;;;3.08;;
21831;SDS011;11078;49.872;6.188;2022-08-25T03:57:50;3.10;;;2.80;;
21831;SDS011;11078;49.872;6.188;2022-08-25T04:00:17;2.95;;;2.75;;
21831;SDS011;11078;49.872;6.188;2022-08-25T04:02:43;3.65;;;3.05;;
21831;SDS011;11078;49.872;6.188;2022-08-25T04:05:09;3.22;;;2.97;;
21831;SDS011;11078;49.872;6.188;2022-08-25T04:07:36;7.40;;;3.13;;
21831;SDS011;11078;49.872;6.188;2022-08-25T04:10:06;7.10;;;3.10;;
21831;SDS011;11078;49.872;6.188;2022-08-25T04:12:34;6.18;;;3.03;;
21831;SDS011;11078;49.872;6.188;2022-08-25T04:15:02;3.08;;;2.78;;
21831;SDS011;11078;49.872;6.188;2022-08-25T04:17:29;5.43;;;3.33;;
21831;SDS011;11078;49.872;6.188;2022-08-25T04:19:56;4.00;;;2.83;;
21831;SDS011;11078;49.872;6.188;2022-08-25T04:22:22;3.83;;;3.45;;
21831;SDS011;11078;49.872;6.188;2022-08-25T04:24:48;4.18;;;3.40;;
21831;SDS011;11078;49.872;6.188;2022-08-25T04:27:14;4.53;;;3.15;;
21831;SDS011;11078;49.872;6.188;2022-08-25T04:29:40;3.40;;;3.10;;
21831;SDS011;11078;49.872;6.188;2022-08-25T04:32:06;3.50;;;3.10;;
21831;SDS011;11078;49.872;6.188;2022-08-25T04:34:32;3.38;;;3.15;;
21831;SDS011;11078;49.872;6.188;2022-08-25T04:36:59;3.78;;;3.00;;
21831;SDS011;11078;49.872;6.188;2022-08-25T04:39:26;3.42;;;3.13;;
21831;SDS011;11078;49.872;6.188;2022-08-25T04:41:53;3.25;;;2.95;;
21831;SDS011;11078;49.872;6.188;2022-08-25T04:44:19;4.18;;;3.45;;
21831;SDS011;11078;49.872;6.188;2022-08-25T04:46:45;3.42;;;3.13;;
21831;SDS011;11078;49.872;6.188;2022-08-25T04:49:11;4.32;;;3.03;;
21831;SDS011;11078;49.872;6.188;2022-08-25T04:51:38;4.40;;;3.22;;
21831;SDS011;11078;49.872;6.188;2022-08-25T04:54:07;3.47;;;3.17;;
21831;SDS011;11078;49.872;6.188;2022-08-25T04:56:36;3.50;;;3.20;;
21831;SDS011;11078;49.872;6.188;2022-08-25T04:59:06;5.10;;;3.17;;
21831;SDS011;11078;49.872;6.188;2022-08-25T05:01:34;3.88;;;3.58;;
21831;SDS011;11078;49.872;6.188;2022-08-25T05:04:02;4.55;;;3.63;;
21831;SDS011;11078;49.872;6.188;2022-08-25T05:06:31;4.32;;;3.55;;
21831;SDS011;11078;49.872;6.188;2022-08-25T05:08:57;4.05;;;3.42;;
21831;SDS011;11078;49.872;6.188;2022-08-25T05:11:24;4.30;;;3.05;;
21831;SDS011;11078;49.872;6.188;2022-08-25T05:13:51;7.28;;;3.88;;
21831;SDS011;11078;49.872;6.188;2022-08-25T05:16:18;7.45;;;3.33;;
21831;SDS011;11078;49.872;6.188;2022-08-25T05:18:46;3.75;;;3.35;;
21831;SDS011;11078;49.872;6.188;2022-08-25T05:21:15;4.00;;;3.42;;
21831;SDS011;11078;49.872;6.188;2022-08-25T05:23:43;3.50;;;3.20;;
21831;SDS011;11078;49.872;6.188;2022-08-25T05:26:13;4.35;;;3.63;;
21831;SDS011;11078;49.872;6.188;2022-08-25T05:28:42;4.28;;;3.25;;
21831;SDS011;11078;49.872;6.188;2022-08-25T05:31:09;3.83;;;3.38;;
21831;SDS011;11078;49.872;6.188;2022-08-25T05:33:37;4.45;;;3.13;;
21831;SDS011;11078;49.872;6.188;2022-08-25T05:36:04;3.88;;;3.47;;
21831;SDS011;11078;49.872;6.188;2022-08-25T05:38:31;4.72;;;3.55;;
21831;SDS011;11078;49.872;6.188;2022-08-25T05:40:58;5.30;;;3.78;;
21831;SDS011;11078;49.872;6.188;2022-08-25T05:46:13;9.45;;;4.38;;
21831;SDS011;11078;49.872;6.188;2022-08-25T05:48:41;5.60;;;3.75;;
21831;SDS011;11078;49.872;6.188;2022-08-25T05:51:07;4.57;;;3.55;;
21831;SDS011;11078;49.872;6.188;2022-08-25T05:53:34;4.47;;;3.97;;
21831;SDS011;11078;49.872;6.188;2022-08-25T05:56:01;12.18;;;4.20;;
21831;SDS011;11078;49.872;6.188;2022-08-25T05:58:28;6.70;;;4.22;;
21831;SDS011;11078;49.872;6.188;2022-08-25T06:00:56;4.00;;;3.60;;
21831;SDS011;11078;49.872;6.188;2022-08-25T06:03:43;4.90;;;3.92;;
21831;SDS011;11078;49.872;6.188;2022-08-25T06:06:09;6.78;;;4.10;;
21831;SDS011;11078;49.872;6.188;2022-08-25T06:08:35;5.30;;;4.07;;
21831;SDS011;11078;49.872;6.188;2022-08-25T06:11:01;5.18;;;4.57;;
21831;SDS011;11078;49.872;6.188;2022-08-25T06:13:27;4.90;;;4.38;;
21831;SDS011;11078;49.872;6.188;2022-08-25T06:15:56;4.65;;;4.18;;
21831;SDS011;11078;49.872;6.188;2022-08-25T06:18:23;4.68;;;4.28;;
21831;SDS011;11078;49.872;6.188;2022-08-25T06:20:49;5.38;;;4.22;;
21831;SDS011;11078;49.872;6.188;2022-08-25T06:23:15;4.85;;;4.15;;
21831;SDS011;11078;49.872;6.188;2022-08-25T06:25:47;3.90;;;3.50;;
21831;SDS011;11078;49.872;6.188;2022-08-25T06:28:14;3.85;;;3.55;;
21831;SDS011;11078;49.872;6.188;2022-08-25T06:30:40;4.35;;;3.45;;
21831;SDS011;11078;49.872;6.188;2022-08-25T06:33:06;3.33;;;3.03;;
21831;SDS011;11078;49.872;6.188;2022-08-25T06:35:32;3.95;;;2.58;;
21831;SDS011;11078;49.872;6.188;2022-08-25T06:37:58;5.88;;;3.00;;
21831;SDS011;11078;49.872;6.188;2022-08-25T06:40:24;3.20;;;2.92;;
21831;SDS011;11078;49.872;6.188;2022-08-25T06:42:50;3.28;;;2.97;;
21831;SDS011;11078;49.872;6.188;2022-08-25T06:45:16;3.80;;;2.90;;
21831;SDS011;11078;49.872;6.188;2022-08-25T06:47:42;2.85;;;2.65;;
21831;SDS011;11078;49.872;6.188;2022-08-25T06:50:09;3.90;;;2.90;;
21831;SDS011;11078;49.872;6.188;2022-08-25T06:52:35;3.78;;;2.70;;
21831;SDS011;11078;49.872;6.188;2022-08-25T06:55:01;3.80;;;2.80;;
21831;SDS011;11078;49.872;6.188;2022-08-25T06:57:28;3.30;;;2.75;;
21831;SDS011;11078;49.872;6.188;2022-08-25T06:59:53;8.73;;;3.10;;
21831;SDS011;11078;49.872;6.188;2022-08-25T07:02:19;5.60;;;2.55;;
21831;SDS011;11078;49.872;6.188;2022-08-25T07:04:45;4.55;;;2.42;;
21831;SDS011;11078;49.872;6.188;2022-08-25T07:07:13;7.50;;;2.88;;
21831;SDS011;11078;49.872;6.188;2022-08-25T07:09:39;3.58;;;2.67;;
21831;SDS011;11078;49.872;6.188;2022-08-25T07:12:05;3.80;;;2.40;;
21831;SDS011;11078;49.872;6.188;2022-08-25T07:14:32;4.53;;;2.63;;
21831;SDS011;11078;49.872;6.188;2022-08-25T07:16:57;8.75;;;2.67;;
21831;SDS011;11078;49.872;6.188;2022-08-25T07:19:23;14.27;;;2.95;;
21831;SDS011;11078;49.872;6.188;2022-08-25T07:24:34;9.02;;;2.75;;
21831;SDS011;11078;49.872;6.188;2022-08-25T07:27:00;5.07;;;2.75;;
21831;SDS011;11078;49.872;6.188;2022-08-25T07:29:26;7.35;;;2.45;;
21831;SDS011;11078;49.872;6.188;2022-08-25T07:31:54;7.70;;;2.63;;
21831;SDS011;11078;49.872;6.188;2022-08-25T07:34:20;2.80;;;2.58;;
21831;SDS011;11078;49.872;6.188;2022-08-25T07:37:02;4.95;;;2.30;;
21831;SDS011;11078;49.872;6.188;2022-08-25T07:39:28;7.38;;;2.20;;
21831;SDS011;11078;49.872;6.188;2022-08-25T07:41:55;4.82;;;2.70;;
21831;SDS011;11078;49.872;6.188;2022-08-25T07:44:22;10.02;;;2.35;;
21831;SDS011;11078;49.872;6.188;2022-08-25T07:46:49;5.88;;;2.53;;
21831;SDS011;11078;49.872;6.188;2022-08-25T07:49:17;8.02;;;2.30;;
21831;SDS011;11078;49.872;6.188;2022-08-25T07:51:44;9.15;;;2.80;;
21831;SDS011;11078;49.872;6.188;2022-08-25T07:54:11;7.82;;;2.40;;
21831;SDS011;11078;49.872;6.188;2022-08-25T07:56:37;5.63;;;2.85;;
21831;SDS011;11078;49.872;6.188;2022-08-25T07:59:06;6.18;;;2.13;;
21831;SDS011;11078;49.872;6.188;2022-08-25T08:01:32;3.30;;;2.38;;
21831;SDS011;11078;49.872;6.188;2022-08-25T08:03:58;5.53;;;2.70;;
21831;SDS011;11078;49.872;6.188;2022-08-25T08:06:24;6.80;;;2.85;;
21831;SDS011;11078;49.872;6.188;2022-08-25T08:08:50;2.40;;;2.13;;
21831;SDS011;11078;49.872;6.188;2022-08-25T08:11:22;7.28;;;2.35;;
21831;SDS011;11078;49.872;6.188;2022-08-25T08:13:51;5.70;;;2.15;;
21831;SDS011;11078;49.872;6.188;2022-08-25T08:16:19;8.50;;;2.33;;
21831;SDS011;11078;49.872;6.188;2022-08-25T08:18:47;6.90;;;2.20;;
21831;SDS011;11078;49.872;6.188;2022-08-25T08:21:14;6.43;;;2.00;;
21831;SDS011;11078;49.872;6.188;2022-08-25T08:23:42;2.92;;;2.00;;
21831;SDS011;11078;49.872;6.188;2022-08-25T08:26:08;6.50;;;2.22;;
21831;SDS011;11078;49.872;6.188;2022-08-25T08:28:34;5.95;;;1.90;;
21831;SDS011;11078;49.872;6.188;2022-08-25T08:31:01;4.47;;;2.22;;
21831;SDS011;11078;49.872;6.188;2022-08-25T08:33:27;2.65;;;1.67;;
21831;SDS011;11078;49.872;6.188;2022-08-25T08:35:57;2.83;;;1.90;;
21831;SDS011;11078;49.872;6.188;2022-08-25T08:38:25;1.95;;;1.58;;
21831;SDS011;11078;49.872;6.188;2022-08-25T08:40:57;3.85;;;2.00;;
21831;SDS011;11078;49.872;6.188;2022-08-25T08:44:02;2.00;;;1.90;;
21831;SDS011;11078;49.872;6.188;2022-08-25T08:46:51;2.33;;;1.98;;
21831;SDS011;11078;49.872;6.188;2022-08-25T08:52:33;3.00;;;1.60;;
21831;SDS011;11078;49.872;6.188;2022-08-25T08:55:07;2.35;;;1.65;;
21831;SDS011;11078;49.872;6.188;2022-08-25T08:57:42;2.03;;;1.92;;
21831;SDS011;11078;49.872;6.188;2022-08-25T09:00:12;5.03;;;1.70;;
21831;SDS011;11078;49.872;6.188;2022-08-25T09:02:51;2.72;;;1.80;;
21831;SDS011;11078;49.872;6.188;2022-08-25T09:05:26;2.08;;;1.52;;
21831;SDS011;11078;49.872;6.188;2022-08-25T09:07:56;3.78;;;1.70;;
21831;SDS011;11078;49.872;6.188;2022-08-25T09:10:33;1.77;;;1.67;;
21831;SDS011;11078;49.872;6.188;2022-08-25T09:16:24;2.00;;;1.90;;
21831;SDS011;11078;49.872;6.188;2022-08-25T09:19:26;2.17;;;1.77;;
21831;SDS011;11078;49.872;6.188;2022-08-25T09:22:19;2.45;;;1.88;;
21831;SDS011;11078;49.872;6.188;2022-08-25T09:25:01;2.50;;;1.85;;
21831;SDS011;11078;49.872;6.188;2022-08-25T09:30:27;2.00;;;1.90;;
21831;SDS011;11078;49.872;6.188;2022-08-25T09:33:03;1.90;;;1.70;;
21831;SDS011;11078;49.872;6.188;2022-08-25T09:35:30;3.83;;;2.05;;
21831;SDS011;11078;49.872;6.188;2022-08-25T09:38:03;2.78;;;2.13;;
21831;SDS011;11078;49.872;6.188;2022-08-25T09:40:32;2.75;;;1.98;;
21831;SDS011;11078;49.872;6.188;2022-08-25T09:43:01;2.97;;;2.03;;
21831;SDS011;11078;49.872;6.188;2022-08-25T09:45:31;1.63;;;1.52;;
21831;SDS011;11078;49.872;6.188;2022-08-25T09:48:18;7.30;;;2.35;;
21831;SDS011;11078;49.872;6.188;2022-08-25T09:50:48;5.38;;;1.92;;
21831;SDS011;11078;49.872;6.188;2022-08-25T09:53:16;5.22;;;1.90;;
21831;SDS011;11078;49.872;6.188;2022-08-25T09:55:43;1.75;;;1.65;;
21831;SDS011;11078;49.872;6.188;2022-08-25T09:58:15;2.10;;;1.90;;
21831;SDS011;11078;49.872;6.188;2022-08-25T10:00:44;2.75;;;1.83;;
21831;SDS011;11078;49.872;6.188;2022-08-25T10:03:37;1.88;;;1.70;;
21831;SDS011;11078;49.872;6.188;2022-08-25T10:06:19;1.88;;;1.77;;
21831;SDS011;11078;49.872;6.188;2022-08-25T10:08:52;2.17;;;2.03;;
21831;SDS011;11078;49.872;6.188;2022-08-25T10:14:10;2.42;;;1.90;;
21831;SDS011;11078;49.872;6.188;2022-08-25T10:16:42;2.05;;;1.85;;
21831;SDS011;11078;49.872;6.188;2022-08-25T10:19:12;1.85;;;1.75;;
21831;SDS011;11078;49.872;6.188;2022-08-25T10:24:45;1.67;;;1.48;;
21831;SDS011;11078;49.872;6.188;2022-08-25T10:30:22;1.63;;;1.52;;
21831;SDS011;11078;49.872;6.188;2022-08-25T10:33:11;1.80;;;1.70;;
21831;SDS011;11078;49.872;6.188;2022-08-25T10:35:54;1.70;;;1.60;;
21831;SDS011;11078;49.872;6.188;2022-08-25T10:41:14;2.10;;;1.90;;
21831;SDS011;11078;49.872;6.188;2022-08-25T10:44:01;2.67;;;1.50;;
21831;SDS011;11078;49.872;6.188;2022-08-25T10:47:05;2.95;;;2.00;;
21831;SDS011;11078;49.872;6.188;2022-08-25T10:50:02;6.32;;;2.00;;
21831;SDS011;11078;49.872;6.188;2022-08-25T10:52:40;1.85;;;1.75;;
21831;SDS011;11078;49.872;6.188;2022-08-25T10:55:33;1.98;;;1.77;;
21831;SDS011;11078;49.872;6.188;2022-08-25T10:58:23;4.18;;;1.75;;
21831;SDS011;11078;49.872;6.188;2022-08-25T11:01:09;2.53;;;1.90;;
21831;SDS011;11078;49.872;6.188;2022-08-25T11:06:54;2.08;;;1.75;;
21831;SDS011;11078;49.872;6.188;2022-08-25T11:09:28;3.00;;;1.67;;
21831;SDS011;11078;49.872;6.188;2022-08-25T11:11:59;2.67;;;1.50;;
21831;SDS011;11078;49.872;6.188;2022-08-25T11:14:34;1.70;;;1.60;;
21831;SDS011;11078;49.872;6.188;2022-08-25T11:19:51;6.68;;;1.80;;
21831;SDS011;11078;49.872;6.188;2022-08-25T11:22:23;1.80;;;1.70;;
21831;SDS011;11078;49.872;6.188;2022-08-25T11:27:56;2.00;;;1.80;;
21831;SDS011;11078;49.872;6.188;2022-08-25T11:30:39;3.55;;;1.60;;
21831;SDS011;11078;49.872;6.188;2022-08-25T11:33:06;3.55;;;1.50;;
21831;SDS011;11078;49.872;6.188;2022-08-25T11:35:43;2.15;;;1.45;;
21831;SDS011;11078;49.872;6.188;2022-08-25T11:38:30;3.00;;;1.60;;
21831;SDS011;11078;49.872;6.188;2022-08-25T11:41:18;1.83;;;1.65;;
21831;SDS011;11078;49.872;6.188;2022-08-25T11:43:57;2.08;;;1.88;;
21831;SDS011;11078;49.872;6.188;2022-08-25T11:49:56;2.72;;;1.55;;
21831;SDS011;11078;49.872;6.188;2022-08-25T11:52:40;3.17;;;1.60;;
21831;SDS011;11078;49.872;6.188;2022-08-25T11:55:15;2.65;;;1.60;;
21831;SDS011;11078;49.872;6.188;2022-08-25T11:57:46;4.07;;;1.55;;
21831;SDS011;11078;49.872;6.188;2022-08-25T12:11:47;5.88;;;1.58;;
21831;SDS011;11078;49.872;6.188;2022-08-25T12:17:16;2.30;;;2.10;;
21831;SDS011;11078;49.872;6.188;2022-08-25T12:19:51;3.28;;;1.60;;
21831;SDS011;11078;49.872;6.188;2022-08-25T12:28:00;1.80;;;1.70;;
21831;SDS011;11078;49.872;6.188;2022-08-25T12:30:39;1.63;;;1.50;;
21831;SDS011;11078;49.872;6.188;2022-08-25T12:33:25;1.50;;;1.40;;
21831;SDS011;11078;49.872;6.188;2022-08-25T12:36:04;1.60;;;1.45;;
21831;SDS011;11078;49.872;6.188;2022-08-25T12:38:33;2.58;;;1.50;;
21831;SDS011;11078;49.872;6.188;2022-08-25T12:41:08;1.92;;;1.65;;
21831;SDS011;11078;49.872;6.188;2022-08-25T12:43:45;2.78;;;1.73;;
21831;SDS011;11078;49.872;6.188;2022-08-25T12:52:03;2.67;;;1.50;;
21831;SDS011;11078;49.872;6.188;2022-08-25T12:54:41;2.72;;;1.77;;
21831;SDS011;11078;49.872;6.188;2022-08-25T12:57:21;15.65;;;2.20;;
21831;SDS011;11078;49.872;6.188;2022-08-25T12:59:55;2.80;;;1.35;;
21831;SDS011;11078;49.872;6.188;2022-08-25T13:05:33;1.60;;;1.50;;
21831;SDS011;11078;49.872;6.188;2022-08-25T13:11:14;2.65;;;1.70;;
21831;SDS011;11078;49.872;6.188;2022-08-25T13:13:50;1.60;;;1.50;;
21831;SDS011;11078;49.872;6.188;2022-08-25T13:16:25;3.05;;;1.63;;
21831;SDS011;11078;49.872;6.188;2022-08-25T13:18:53;1.80;;;1.70;;
21831;SDS011;11078;49.872;6.188;2022-08-25T13:21:24;1.50;;;1.40;;
21831;SDS011;11078;49.872;6.188;2022-08-25T13:23:55;1.88;;;1.63;;
21831;SDS011;11078;49.872;6.188;2022-08-25T13:26:25;1.88;;;1.77;;
21831;SDS011;11078;49.872;6.188;2022-08-25T13:28:57;2.00;;;1.70;;
21831;SDS011;11078;49.872;6.188;2022-08-25T13:31:25;2.83;;;1.80;;
21831;SDS011;11078;49.872;6.188;2022-08-25T13:34:02;1.92;;;1.80;;
21831;SDS011;11078;49.872;6.188;2022-08-25T13:36:31;1.90;;;1.80;;
21831;SDS011;11078;49.872;6.188;2022-08-25T13:39:17;3.55;;;1.58;;
21831;SDS011;11078;49.872;6.188;2022-08-25T13:41:47;2.42;;;1.48;;
21831;SDS011;11078;49.872;6.188;2022-08-25T13:44:15;1.67;;;1.40;;
21831;SDS011;11078;49.872;6.188;2022-08-25T13:46:43;2.60;;;1.52;;
21831;SDS011;11078;49.872;6.188;2022-08-25T13:49:11;4.82;;;2.13;;
21831;SDS011;11078;49.872;6.188;2022-08-25T13:51:38;2.50;;;1.70;;
21831;SDS011;11078;49.872;6.188;2022-08-25T13:54:22;1.73;;;1.63;;
21831;SDS011;11078;49.872;6.188;2022-08-25T13:56:52;3.65;;;1.60;;
21831;SDS011;11078;49.872;6.188;2022-08-25T13:59:21;1.60;;;1.50;;
21831;SDS011;11078;49.872;6.188;2022-08-25T14:01:50;1.52;;;1.38;;
21831;SDS011;11078;49.872;6.188;2022-08-25T14:04:19;3.38;;;1.58;;
21831;SDS011;11078;49.872;6.188;2022-08-25T14:09:48;1.60;;;1.50;;
21831;SDS011;11078;49.872;6.188;2022-08-25T14:12:35;1.60;;;1.50;;
21831;SDS011;11078;49.872;6.188;2022-08-25T14:15:09;1.60;;;1.50;;
21831;SDS011;11078;49.872;6.188;2022-08-25T14:18:02;1.77;;;1.55;;
21831;SDS011;11078;49.872;6.188;2022-08-25T14:20:46;2.40;;;1.52;;
21831;SDS011;11078;49.872;6.188;2022-08-25T14:23:16;1.60;;;1.50;;
21831;SDS011;11078;49.872;6.188;2022-08-25T14:25:44;1.33;;;1.23;;
21831;SDS011;11078;49.872;6.188;2022-08-25T14:28:12;2.90;;;1.60;;
21831;SDS011;11078;49.872;6.188;2022-08-25T14:30:42;2.30;;;1.30;;
21831;SDS011;11078;49.872;6.188;2022-08-25T14:33:14;2.22;;;1.60;;
21831;SDS011;11078;49.872;6.188;2022-08-25T14:35:42;1.50;;;1.40;;
21831;SDS011;11078;49.872;6.188;2022-08-25T14:38:12;1.65;;;1.35;;
21831;SDS011;11078;49.872;6.188;2022-08-25T14:40:39;1.60;;;1.50;;
21831;SDS011;11078;49.872;6.188;2022-08-25T14:43:06;1.48;;;1.33;;
21831;SDS011;11078;49.872;6.188;2022-08-25T14:45:33;1.55;;;1.38;;
21831;SDS011;11078;49.872;6.188;2022-08-25T14:48:03;1.98;;;1.40;;
21831;SDS011;11078;49.872;6.188;2022-08-25T14:50:32;1.75;;;1.60;;
21831;SDS011;11078;49.872;6.188;2022-08-25T14:53:00;1.60;;;1.40;;
21831;SDS011;11078;49.872;6.188;2022-08-25T14:55:26;5.55;;;1.75;;
21831;SDS011;11078;49.872;6.188;2022-08-25T14:57:52;1.70;;;1.60;;
21831;SDS011;11078;49.872;6.188;2022-08-25T15:00:18;1.50;;;1.40;;
21831;SDS011;11078;49.872;6.188;2022-08-25T15:02:44;3.17;;;1.50;;
21831;SDS011;11078;49.872;6.188;2022-08-25T15:05:14;1.50;;;1.40;;
21831;SDS011;11078;49.872;6.188;2022-08-25T15:07:44;1.60;;;1.45;;
21831;SDS011;11078;49.872;6.188;2022-08-25T15:10:25;1.92;;;1.70;;
21831;SDS011;11078;49.872;6.188;2022-08-25T15:12:51;2.13;;;1.75;;
21831;SDS011;11078;49.872;6.188;2022-08-25T15:15:17;2.40;;;1.65;;
21831;SDS011;11078;49.872;6.188;2022-08-25T15:17:44;2.83;;;1.90;;
21831;SDS011;11078;49.872;6.188;2022-08-25T15:20:11;1.55;;;1.45;;
21831;SDS011;11078;49.872;6.188;2022-08-25T15:22:38;2.67;;;1.63;;
21831;SDS011;11078;49.872;6.188;2022-08-25T15:25:05;2.90;;;1.80;;
21831;SDS011;11078;49.872;6.188;2022-08-25T15:27:31;2.08;;;1.70;;
21831;SDS011;11078;49.872;6.188;2022-08-25T15:29:57;3.08;;;1.70;;
21831;SDS011;11078;49.872;6.188;2022-08-25T15:32:23;2.47;;;1.58;;
21831;SDS011;11078;49.872;6.188;2022-08-25T15:34:49;3.50;;;1.70;;
21831;SDS011;11078;49.872;6.188;2022-08-25T15:37:16;5.50;;;1.67;;
21831;SDS011;11078;49.872;6.188;2022-08-25T15:39:43;2.22;;;1.67;;
21831;SDS011;11078;49.872;6.188;2022-08-25T15:42:10;5.10;;;1.70;;
21831;SDS011;11078;49.872;6.188;2022-08-25T15:44:37;2.10;;;1.70;;
21831;SDS011;11078;49.872;6.188;2022-08-25T15:47:04;1.50;;;1.40;;
21831;SDS011;11078;49.872;6.188;2022-08-25T15:49:30;1.92;;;1.60;;
21831;SDS011;11078;49.872;6.188;2022-08-25T15:51:56;1.98;;;1.77;;
21831;SDS011;11078;49.872;6.188;2022-08-25T15:54:23;2.58;;;1.85;;
21831;SDS011;11078;49.872;6.188;2022-08-25T15:56:49;3.63;;;1.60;;
21831;SDS011;11078;49.872;6.188;2022-08-25T15:59:16;2.67;;;1.40;;
21831;SDS011;11078;49.872;6.188;2022-08-25T16:01:42;2.20;;;1.48;;
21831;SDS011;11078;49.872;6.188;2022-08-25T16:04:08;2.20;;;1.90;;
21831;SDS011;11078;49.872;6.188;2022-08-25T16:06:35;13.30;;;1.92;;
21831;SDS011;11078;49.872;6.188;2022-08-25T16:09:02;3.47;;;1.63;;
21831;SDS011;11078;49.872;6.188;2022-08-25T16:11:30;2.88;;;1.73;;
21831;SDS011;11078;49.872;6.188;2022-08-25T16:13:59;5.15;;;1.60;;
21831;SDS011;11078;49.872;6.188;2022-08-25T16:16:26;1.75;;;1.63;;
21831;SDS011;11078;49.872;6.188;2022-08-25T16:18:53;4.65;;;1.58;;